sensor_id;sensor_type;location;lat;lon;timestamp;pressure;altitude;pressure_sealevel;temperature;humidity
32033;BME280;31720;52.638;9.216;2023-05-03T00:00:41;102593.88;;;6.32;100.00
32033;BME280;31720;52.638;9.216;2023-05-03T00:03:43;102595.63;;;6.29;100.00
32033;BME280;31720;52.638;9.216;2023-05-03T00:06:46;102591.28;;;6.28;100.00
32033;BME280;31720;52.638;9.216;2023-05-03T00:09:48;102597.41;;;6.21;100.00
32033;BME280;31720;52.638;9.216;2023-05-03T00:12:49;102593.06;;;6.18;100.00
32033;BME280;31720;52.638;9.216;2023-05-03T00:15:51;102593.06;;;6.17;100.00
32033;BME280;31720;52.638;9.216;2023-05-03T00:18:52;102589.63;;;6.12;100.00
32033;BME280;31720;52.638;9.216;2023-05-03T00:21:55;102599.16;;;6.13;100.00
32033;BME280;31720;52.638;9.216;2023-05-03T00:24:58;102606.19;;;6.04;100.00
32033;BME280;31720;52.638;9.216;2023-05-03T00:27:59;102605.31;;;6.02;100.00
32033;BME280;31720;52.638;9.216;2023-05-03T00:31:06;102602.69;;;6.07;100.00
32033;BME280;31720;52.638;9.216;2023-05-03T00:34:08;102599.28;;;5.96;100.00
32033;BME280;31720;52.638;9.216;2023-05-03T00:37:11;102600.09;;;5.90;100.00
32033;BME280;31720;52.638;9.216;2023-05-03T00:40:12;102596.69;;;5.82;100.00
32033;BME280;31720;52.638;9.216;2023-05-03T00:43:17;102595.81;;;5.81;100.00
32033;BME280;31720;52.638;9.216;2023-05-03T00:46:19;102606.25;;;5.75;100.00
32033;BME280;31720;52.638;9.216;2023-05-03T00:49:20;102600.16;;;5.76;100.00
32033;BME280;31720;52.638;9.216;2023-05-03T00:52:23;102601.97;;;5.60;100.00
32033;BME280;31720;52.638;9.216;2023-05-03T00:55:28;102607.16;;;5.65;100.00
32033;BME280;31720;52.638;9.216;2023-05-03T00:58:30;102601.97;;;5.68;100.00
32033;BME280;31720;52.638;9.216;2023-05-03T01:01:32;102602.81;;;5.69;100.00
32033;BME280;31720;52.638;9.216;2023-05-03T01:04:34;102599.34;;;5.70;100.00
32033;BME280;31720;52.638;9.216;2023-05-03T01:07:44;102595.00;;;5.63;100.00
32033;BME280;31720;52.638;9.216;2023-05-03T01:10:54;102598.50;;;5.54;100.00
32033;BME280;31720;52.638;9.216;2023-05-03T01:14:02;102598.50;;;5.54;100.00
32033;BME280;31720;52.638;9.216;2023-05-03T01:17:08;102606.34;;;5.46;100.00
32033;BME280;31720;52.638;9.216;2023-05-03T01:20:12;102598.50;;;5.45;100.00
32033;BME280;31720;52.638;9.216;2023-05-03T01:23:23;102593.34;;;5.37;100.00
32033;BME280;31720;52.638;9.216;2023-05-03T01:26:29;102601.16;;;5.32;100.00
32033;BME280;31720;52.638;9.216;2023-05-03T01:29:32;102595.06;;;5.33;100.00
32033;BME280;31720;52.638;9.216;2023-05-03T01:32:44;102592.50;;;5.27;100.00
32033;BME280;31720;52.638;9.216;2023-05-03T01:35:51;102595.94;;;5.26;100.00
32033;BME280;31720;52.638;9.216;2023-05-03T01:38:54;102595.06;;;5.26;100.00
32033;BME280;31720;52.638;9.216;2023-05-03T01:41:58;102596.81;;;5.18;100.00
32033;BME280;31720;52.638;9.216;2023-05-03T01:45:01;102602.06;;;5.12;100.00
32033;BME280;31720;52.638;9.216;2023-05-03T01:48:08;102609.88;;;5.10;100.00
32033;BME280;31720;52.638;9.216;2023-05-03T01:51:10;102615.09;;;5.10;100.00
32033;BME280;31720;52.638;9.216;2023-05-03T01:54:12;102616.81;;;4.94;100.00
32033;BME280;31720;52.638;9.216;2023-05-03T01:57:14;102615.97;;;4.91;100.00
32033;BME280;31720;52.638;9.216;2023-05-03T02:00:16;102611.59;;;4.85;100.00
32033;BME280;31720;52.638;9.216;2023-05-03T02:03:17;102608.16;;;4.92;100.00
32033;BME280;31720;52.638;9.216;2023-05-03T02:06:19;102601.22;;;4.96;100.00
32033;BME280;31720;52.638;9.216;2023-05-03T02:09:21;102602.06;;;4.90;100.00
32033;BME280;31720;52.638;9.216;2023-05-03T02:12:24;102609.88;;;4.79;100.00
32033;BME280;31720;52.638;9.216;2023-05-03T02:15:25;102617.69;;;4.82;100.00
32033;BME280;31720;52.638;9.216;2023-05-03T02:18:27;102622.91;;;4.79;100.00
32033;BME280;31720;52.638;9.216;2023-05-03T02:21:32;102622.03;;;4.80;100.00
32033;BME280;31720;52.638;9.216;2023-05-03T02:24:34;102633.31;;;4.75;100.00
32033;BME280;31720;52.638;9.216;2023-05-03T02:27:36;102637.63;;;4.71;100.00
32033;BME280;31720;52.638;9.216;2023-05-03T02:30:38;102634.16;;;4.57;100.00
32033;BME280;31720;52.638;9.216;2023-05-03T02:33:39;102638.47;;;4.53;100.00
32033;BME280;31720;52.638;9.216;2023-05-03T02:36:41;102641.06;;;4.49;100.00
32033;BME280;31720;52.638;9.216;2023-05-03T02:39:42;102637.59;;;4.47;100.00
32033;BME280;31720;52.638;9.216;2023-05-03T02:42:45;102638.47;;;4.47;100.00
32033;BME280;31720;52.638;9.216;2023-05-03T02:45:46;102641.06;;;4.43;100.00
32033;BME280;31720;52.638;9.216;2023-05-03T02:48:47;102641.91;;;4.36;100.00
32033;BME280;31720;52.638;9.216;2023-05-03T02:51:49;102645.34;;;4.24;100.00
32033;BME280;31720;52.638;9.216;2023-05-03T02:54:52;102641.88;;;4.29;100.00
32033;BME280;31720;52.638;9.216;2023-05-03T02:57:55;102647.94;;;4.25;100.00
32033;BME280;31720;52.638;9.216;2023-05-03T03:00:56;102634.06;;;4.25;100.00
32033;BME280;31720;52.638;9.216;2023-05-03T03:03:57;102635.00;;;4.36;100.00
32033;BME280;31720;52.638;9.216;2023-05-03T03:06:59;102639.28;;;4.36;100.00
32033;BME280;31720;52.638;9.216;2023-05-03T03:10:00;102634.94;;;4.30;100.00
32033;BME280;31720;52.638;9.216;2023-05-03T03:13:03;102640.13;;;4.22;100.00
32033;BME280;31720;52.638;9.216;2023-05-03T03:16:06;102640.16;;;4.24;100.00
32033;BME280;31720;52.638;9.216;2023-05-03T03:19:07;102632.31;;;4.16;100.00
32033;BME280;31720;52.638;9.216;2023-05-03T03:22:09;102630.53;;;4.07;100.00
32033;BME280;31720;52.638;9.216;2023-05-03T03:25:10;102640.94;;;4.12;100.00
32033;BME280;31720;52.638;9.216;2023-05-03T03:28:13;102633.97;;;4.03;100.00
32033;BME280;31720;52.638;9.216;2023-05-03T03:31:14;102636.53;;;3.93;100.00
32033;BME280;31720;52.638;9.216;2023-05-03T03:34:17;102637.44;;;4.01;100.00
32033;BME280;31720;52.638;9.216;2023-05-03T03:37:18;102626.09;;;3.85;100.00
32033;BME280;31720;52.638;9.216;2023-05-03T03:40:21;102636.53;;;3.87;100.00
32033;BME280;31720;52.638;9.216;2023-05-03T03:43:23;102639.13;;;3.87;100.00
32033;BME280;31720;52.638;9.216;2023-05-03T03:46:25;102626.97;;;3.84;100.00
32033;BME280;31720;52.638;9.216;2023-05-03T03:49:26;102629.53;;;3.81;100.00
32033;BME280;31720;52.638;9.216;2023-05-03T03:52:28;102630.44;;;3.89;100.00
32033;BME280;31720;52.638;9.216;2023-05-03T03:55:29;102633.94;;;3.93;100.00
32033;BME280;31720;52.638;9.216;2023-05-03T03:58:32;102626.97;;;3.86;100.00
32033;BME280;31720;52.638;9.216;2023-05-03T04:01:34;102621.78;;;3.83;100.00
32033;BME280;31720;52.638;9.216;2023-05-03T04:04:35;102624.34;;;3.79;100.00
32033;BME280;31720;52.638;9.216;2023-05-03T04:07:36;102626.09;;;3.82;100.00
32033;BME280;31720;52.638;9.216;2023-05-03T04:10:38;102629.53;;;3.81;100.00
32033;BME280;31720;52.638;9.216;2023-05-03T04:13:40;102632.13;;;3.75;100.00
32033;BME280;31720;52.638;9.216;2023-05-03T04:16:42;102631.25;;;3.73;100.00
32033;BME280;31720;52.638;9.216;2023-05-03T04:19:43;102635.59;;;3.74;100.00
32033;BME280;31720;52.638;9.216;2023-05-03T04:22:46;102636.50;;;3.82;100.00
32033;BME280;31720;52.638;9.216;2023-05-03T04:25:47;102636.47;;;3.79;100.00
32033;BME280;31720;52.638;9.216;2023-05-03T04:28:50;102633.84;;;3.76;100.00
32033;BME280;31720;52.638;9.216;2023-05-03T04:31:51;102639.06;;;3.74;100.00
32033;BME280;31720;52.638;9.216;2023-05-03T04:34:53;102639.97;;;3.83;100.00
32033;BME280;31720;52.638;9.216;2023-05-03T04:37:54;102633.91;;;3.85;100.00
32033;BME280;31720;52.638;9.216;2023-05-03T04:40:56;102639.97;;;3.84;100.00
32033;BME280;31720;52.638;9.216;2023-05-03T04:43:59;102640.84;;;3.89;100.00
32033;BME280;31720;52.638;9.216;2023-05-03T04:47:00;102638.25;;;3.86;100.00
32033;BME280;31720;52.638;9.216;2023-05-03T04:50:02;102643.47;;;3.88;100.00
32033;BME280;31720;52.638;9.216;2023-05-03T04:53:03;102646.06;;;3.88;100.00
32033;BME280;31720;52.638;9.216;2023-05-03T04:56:06;102648.69;;;3.92;100.00
32033;BME280;31720;52.638;9.216;2023-05-03T04:59:08;102649.56;;;3.96;100.00
32033;BME280;31720;52.638;9.216;2023-05-03T05:02:10;102647.00;;;4.08;100.00
32033;BME280;31720;52.638;9.216;2023-05-03T05:05:11;102648.75;;;4.11;100.00
32033;BME280;31720;52.638;9.216;2023-05-03T05:08:13;102657.44;;;4.16;100.00
32033;BME280;31720;52.638;9.216;2023-05-03T05:11:15;102663.53;;;4.18;100.00
32033;BME280;31720;52.638;9.216;2023-05-03T05:14:18;102660.06;;;4.19;100.00
32033;BME280;31720;52.638;9.216;2023-05-03T05:17:19;102662.69;;;4.25;100.00
32033;BME280;31720;52.638;9.216;2023-05-03T05:20:20;102662.69;;;4.31;100.00
32033;BME280;31720;52.638;9.216;2023-05-03T05:23:22;102666.19;;;4.33;100.00
32033;BME280;31720;52.638;9.216;2023-05-03T05:26:23;102669.69;;;4.38;100.00
32033;BME280;31720;52.638;9.216;2023-05-03T05:29:26;102669.69;;;4.43;100.00
32033;BME280;31720;52.638;9.216;2023-05-03T05:32:27;102665.38;;;4.52;100.00
32033;BME280;31720;52.638;9.216;2023-05-03T05:35:29;102664.53;;;4.60;100.00
32033;BME280;31720;52.638;9.216;2023-05-03T05:38:30;102674.97;;;4.72;100.00
32033;BME280;31720;52.638;9.216;2023-05-03T05:41:32;102675.88;;;4.77;100.00
32033;BME280;31720;52.638;9.216;2023-05-03T05:44:34;102679.34;;;4.82;100.00
32033;BME280;31720;52.638;9.216;2023-05-03T05:47:36;102682.81;;;4.84;100.00
32033;BME280;31720;52.638;9.216;2023-05-03T05:50:37;102689.78;;;4.93;100.00
32033;BME280;31720;52.638;9.216;2023-05-03T05:53:39;102695.00;;;5.00;100.00
32033;BME280;31720;52.638;9.216;2023-05-03T05:56:40;102693.28;;;5.05;100.00
32033;BME280;31720;52.638;9.216;2023-05-03T05:59:43;102694.16;;;5.18;100.00
32033;BME280;31720;52.638;9.216;2023-05-03T06:02:44;102692.38;;;5.31;100.00
32033;BME280;31720;52.638;9.216;2023-05-03T06:05:45;102702.81;;;5.39;100.00
32033;BME280;31720;52.638;9.216;2023-05-03T06:08:47;102699.31;;;5.53;100.00
32033;BME280;31720;52.638;9.216;2023-05-03T06:11:50;102701.09;;;5.64;100.00
32033;BME280;31720;52.638;9.216;2023-05-03T06:14:53;102702.78;;;5.71;100.00
32033;BME280;31720;52.638;9.216;2023-05-03T06:17:54;102705.41;;;5.81;100.00
32033;BME280;31720;52.638;9.216;2023-05-03T06:20:56;102711.47;;;5.91;100.00
32033;BME280;31720;52.638;9.216;2023-05-03T06:23:57;102703.63;;;5.99;100.00
32033;BME280;31720;52.638;9.216;2023-05-03T06:26:58;102720.16;;;6.05;100.00
32033;BME280;31720;52.638;9.216;2023-05-03T06:30:01;102714.03;;;6.14;100.00
32033;BME280;31720;52.638;9.216;2023-05-03T06:33:03;102719.22;;;6.23;100.00
32033;BME280;31720;52.638;9.216;2023-05-03T06:36:05;102718.31;;;6.33;100.00
32033;BME280;31720;52.638;9.216;2023-05-03T06:39:07;102720.88;;;6.43;100.00
32033;BME280;31720;52.638;9.216;2023-05-03T06:42:08;102725.22;;;6.44;100.00
32033;BME280;31720;52.638;9.216;2023-05-03T06:45:11;102729.53;;;6.52;100.00
32033;BME280;31720;52.638;9.216;2023-05-03T06:48:13;102722.56;;;6.53;100.00
32033;BME280;31720;52.638;9.216;2023-05-03T06:51:14;102715.56;;;6.64;99.07
32033;BME280;31720;52.638;9.216;2023-05-03T06:54:15;102725.94;;;6.72;96.81
32033;BME280;31720;52.638;9.216;2023-05-03T06:57:19;102725.06;;;6.79;93.12
32033;BME280;31720;52.638;9.216;2023-05-03T07:00:22;102724.19;;;6.81;91.43
32033;BME280;31720;52.638;9.216;2023-05-03T07:03:25;102716.25;;;6.92;89.14
32033;BME280;31720;52.638;9.216;2023-05-03T07:06:26;102714.47;;;7.00;88.34
32033;BME280;31720;52.638;9.216;2023-05-03T07:09:27;102710.06;;;7.04;85.75
32033;BME280;31720;52.638;9.216;2023-05-03T07:12:29;102722.25;;;7.09;87.01
32033;BME280;31720;52.638;9.216;2023-05-03T07:15:32;102718.72;;;7.18;85.87
32033;BME280;31720;52.638;9.216;2023-05-03T07:18:33;102711.63;;;7.29;87.72
32033;BME280;31720;52.638;9.216;2023-05-03T07:21:35;102708.97;;;7.37;89.38
32033;BME280;31720;52.638;9.216;2023-05-03T07:24:36;102706.22;;;7.49;87.97
32033;BME280;31720;52.638;9.216;2023-05-03T07:27:37;102713.06;;;7.66;85.20
32033;BME280;31720;52.638;9.216;2023-05-03T07:30:40;102711.16;;;7.83;84.55
32033;BME280;31720;52.638;9.216;2023-05-03T07:33:41;102715.34;;;7.98;86.50
32033;BME280;31720;52.638;9.216;2023-05-03T07:36:43;102708.25;;;8.09;79.90
32033;BME280;31720;52.638;9.216;2023-05-03T07:39:44;102705.53;;;8.18;79.24
32033;BME280;31720;52.638;9.216;2023-05-03T07:42:45;102705.47;;;8.21;78.25
32033;BME280;31720;52.638;9.216;2023-05-03T07:45:48;102701.97;;;8.21;75.76
32033;BME280;31720;52.638;9.216;2023-05-03T07:48:50;102700.16;;;8.29;75.17
32033;BME280;31720;52.638;9.216;2023-05-03T07:51:51;102701.81;;;8.34;78.24
32033;BME280;31720;52.638;9.216;2023-05-03T07:54:52;102700.97;;;8.32;74.37
32033;BME280;31720;52.638;9.216;2023-05-03T07:57:54;102701.88;;;8.30;76.93
32033;BME280;31720;52.638;9.216;2023-05-03T08:00:59;102705.28;;;8.35;77.51
32033;BME280;31720;52.638;9.216;2023-05-03T08:04:02;102700.78;;;8.49;74.05
32033;BME280;31720;52.638;9.216;2023-05-03T08:07:04;102703.53;;;8.38;72.70
32033;BME280;31720;52.638;9.216;2023-05-03T08:10:06;102707.03;;;8.41;74.72
32033;BME280;31720;52.638;9.216;2023-05-03T08:13:08;102700.06;;;8.38;71.86
32033;BME280;31720;52.638;9.216;2023-05-03T08:16:12;102699.16;;;8.39;72.79
32033;BME280;31720;52.638;9.216;2023-05-03T08:19:13;102704.44;;;8.37;73.37
32033;BME280;31720;52.638;9.216;2023-05-03T08:22:16;102701.84;;;8.33;72.48
32033;BME280;31720;52.638;9.216;2023-05-03T08:25:17;102702.53;;;8.49;74.24
32033;BME280;31720;52.638;9.216;2023-05-03T08:28:19;102706.91;;;8.48;72.65
32033;BME280;31720;52.638;9.216;2023-05-03T08:31:22;102702.44;;;8.56;73.17
32033;BME280;31720;52.638;9.216;2023-05-03T08:34:23;102700.72;;;8.55;72.55
32033;BME280;31720;52.638;9.216;2023-05-03T08:37:25;102700.63;;;8.63;75.73
32033;BME280;31720;52.638;9.216;2023-05-03T08:40:27;102703.09;;;8.71;76.09
32033;BME280;31720;52.638;9.216;2023-05-03T08:43:30;102687.28;;;8.78;73.10
32033;BME280;31720;52.638;9.216;2023-05-03T08:46:35;102686.34;;;8.81;70.53
32033;BME280;31720;52.638;9.216;2023-05-03T08:49:38;102697.69;;;8.83;71.41
32033;BME280;31720;52.638;9.216;2023-05-03T08:52:40;102687.19;;;8.84;71.33
32033;BME280;31720;52.638;9.216;2023-05-03T08:55:42;102678.91;;;8.52;68.05
32033;BME280;31720;52.638;9.216;2023-05-03T08:58:44;102678.09;;;8.48;69.65
32033;BME280;31720;52.638;9.216;2023-05-03T09:01:46;102678.88;;;8.53;72.07
32033;BME280;31720;52.638;9.216;2023-05-03T09:04:48;102679.66;;;8.63;71.86
32033;BME280;31720;52.638;9.216;2023-05-03T09:07:59;102688.06;;;8.83;69.99
32033;BME280;31720;52.638;9.216;2023-05-03T09:11:01;102687.69;;;9.08;72.17
32033;BME280;31720;52.638;9.216;2023-05-03T09:14:10;102684.81;;;9.25;71.14
32033;BME280;31720;52.638;9.216;2023-05-03T09:17:17;102679.31;;;9.38;70.93
32033;BME280;31720;52.638;9.216;2023-05-03T09:20:32;102679.44;;;9.32;68.83
32033;BME280;31720;52.638;9.216;2023-05-03T09:23:34;102680.78;;;9.55;71.04
32033;BME280;31720;52.638;9.216;2023-05-03T09:26:36;102692.91;;;9.62;69.39
32033;BME280;31720;52.638;9.216;2023-05-03T09:29:39;102687.72;;;9.59;69.02
32033;BME280;31720;52.638;9.216;2023-05-03T09:32:47;102691.69;;;9.81;68.08
32033;BME280;31720;52.638;9.216;2023-05-03T09:35:58;102695.00;;;9.91;68.84
32033;BME280;31720;52.638;9.216;2023-05-03T09:39:15;102690.53;;;9.95;68.46
32033;BME280;31720;52.638;9.216;2023-05-03T09:42:17;102688.63;;;10.03;67.18
32033;BME280;31720;52.638;9.216;2023-05-03T09:45:22;102690.09;;;10.16;67.71
32033;BME280;31720;52.638;9.216;2023-05-03T09:48:25;102687.53;;;10.14;65.91
32033;BME280;31720;52.638;9.216;2023-05-03T09:51:27;102681.41;;;10.14;64.87
32033;BME280;31720;52.638;9.216;2023-05-03T09:54:31;102677.25;;;10.04;64.39
32033;BME280;31720;52.638;9.216;2023-05-03T09:57:35;102675.94;;;9.81;62.75
32033;BME280;31720;52.638;9.216;2023-05-03T10:00:38;102670.81;;;9.74;64.35
32033;BME280;31720;52.638;9.216;2023-05-03T10:03:43;102670.63;;;9.83;65.87
32033;BME280;31720;52.638;9.216;2023-05-03T10:06:48;102665.84;;;10.03;65.54
32033;BME280;31720;52.638;9.216;2023-05-03T10:09:49;102668.03;;;10.26;66.78
32033;BME280;31720;52.638;9.216;2023-05-03T10:12:51;102660.75;;;10.39;65.48
32033;BME280;31720;52.638;9.216;2023-05-03T10:15:57;102655.34;;;10.47;65.20
32033;BME280;31720;52.638;9.216;2023-05-03T10:19:06;102660.75;;;10.39;65.14
32033;BME280;31720;52.638;9.216;2023-05-03T10:22:10;102663.06;;;10.53;64.82
32033;BME280;31720;52.638;9.216;2023-05-03T10:25:11;102657.59;;;10.62;66.36
32033;BME280;31720;52.638;9.216;2023-05-03T10:28:13;102642.72;;;10.61;65.09
32033;BME280;31720;52.638;9.216;2023-05-03T10:31:43;102645.56;;;10.89;66.07
32033;BME280;31720;52.638;9.216;2023-05-03T10:34:46;102638.81;;;10.79;65.69
32033;BME280;31720;52.638;9.216;2023-05-03T10:37:48;102635.22;;;10.83;65.73
32033;BME280;31720;52.638;9.216;2023-05-03T10:40:50;102634.47;;;10.76;62.50
32033;BME280;31720;52.638;9.216;2023-05-03T10:43:52;102629.88;;;10.86;66.01
32033;BME280;31720;52.638;9.216;2023-05-03T10:46:53;102633.78;;;11.05;68.54
32033;BME280;31720;52.638;9.216;2023-05-03T10:50:26;102636.94;;;11.20;64.63
32033;BME280;31720;52.638;9.216;2023-05-03T10:53:38;102627.63;;;11.39;66.11
32033;BME280;31720;52.638;9.216;2023-05-03T10:56:47;102629.22;;;11.46;64.89
32033;BME280;31720;52.638;9.216;2023-05-03T10:59:49;102630.50;;;11.62;64.00
32033;BME280;31720;52.638;9.216;2023-05-03T11:03:26;102630.59;;;11.92;62.14
32033;BME280;31720;52.638;9.216;2023-05-03T11:06:34;102628.38;;;12.08;58.67
32033;BME280;31720;52.638;9.216;2023-05-03T11:09:35;102628.63;;;11.99;59.84
32033;BME280;31720;52.638;9.216;2023-05-03T11:12:37;102621.38;;;12.07;61.66
32033;BME280;31720;52.638;9.216;2023-05-03T11:15:39;102622.56;;;12.26;61.15
32033;BME280;31720;52.638;9.216;2023-05-03T11:18:41;102616.41;;;12.55;59.81
32033;BME280;31720;52.638;9.216;2023-05-03T11:21:44;102604.47;;;12.70;59.58
32033;BME280;31720;52.638;9.216;2023-05-03T11:24:45;102611.09;;;12.83;58.34
32033;BME280;31720;52.638;9.216;2023-05-03T11:27:47;102609.78;;;12.42;58.18
32033;BME280;31720;52.638;9.216;2023-05-03T11:30:49;102607.75;;;12.22;64.19
32033;BME280;31720;52.638;9.216;2023-05-03T11:33:50;102602.06;;;12.36;62.37
32033;BME280;31720;52.638;9.216;2023-05-03T11:36:53;102592.19;;;12.42;59.77
32033;BME280;31720;52.638;9.216;2023-05-03T11:39:54;102593.28;;;12.63;58.48
32033;BME280;31720;52.638;9.216;2023-05-03T11:42:57;102589.59;;;12.94;59.19
32033;BME280;31720;52.638;9.216;2023-05-03T11:45:59;102585.91;;;13.26;58.38
32033;BME280;31720;52.638;9.216;2023-05-03T11:49:01;102589.59;;;13.20;58.73
32033;BME280;31720;52.638;9.216;2023-05-03T11:52:04;102579.75;;;13.26;57.76
32033;BME280;31720;52.638;9.216;2023-05-03T11:55:06;102579.88;;;13.71;56.41
32033;BME280;31720;52.638;9.216;2023-05-03T11:58:11;102579.94;;;13.93;54.94
32033;BME280;31720;52.638;9.216;2023-05-03T12:01:13;102571.72;;;14.01;54.55
32033;BME280;31720;52.638;9.216;2023-05-03T12:04:15;102576.69;;;14.32;55.05
32033;BME280;31720;52.638;9.216;2023-05-03T12:07:18;102576.00;;;14.27;53.99
32033;BME280;31720;52.638;9.216;2023-05-03T12:10:21;102574.50;;;14.19;53.38
32033;BME280;31720;52.638;9.216;2023-05-03T12:13:26;102573.78;;;14.38;51.98
32033;BME280;31720;52.638;9.216;2023-05-03T12:16:45;102577.78;;;14.26;53.84
32033;BME280;31720;52.638;9.216;2023-05-03T12:19:46;102571.63;;;14.49;52.86
32033;BME280;31720;52.638;9.216;2023-05-03T12:22:50;102563.09;;;14.41;53.04
32033;BME280;31720;52.638;9.216;2023-05-03T12:25:52;102564.75;;;14.65;53.28
32033;BME280;31720;52.638;9.216;2023-05-03T12:28:53;102561.28;;;14.85;51.12
32033;BME280;31720;52.638;9.216;2023-05-03T12:31:55;102559.16;;;14.93;51.23
32033;BME280;31720;52.638;9.216;2023-05-03T12:35:02;102557.19;;;15.19;50.43
32033;BME280;31720;52.638;9.216;2023-05-03T12:38:04;102550.63;;;15.28;48.48
32033;BME280;31720;52.638;9.216;2023-05-03T12:41:07;102549.06;;;15.42;50.03
32033;BME280;31720;52.638;9.216;2023-05-03T12:44:08;102549.97;;;15.22;50.28
32033;BME280;31720;52.638;9.216;2023-05-03T12:47:10;102543.13;;;15.17;53.29
32033;BME280;31720;52.638;9.216;2023-05-03T12:50:12;102552.75;;;15.19;52.03
32033;BME280;31720;52.638;9.216;2023-05-03T12:53:15;102546.75;;;15.35;54.14
32033;BME280;31720;52.638;9.216;2023-05-03T12:56:16;102543.28;;;15.53;51.70
32033;BME280;31720;52.638;9.216;2023-05-03T12:59:18;102537.63;;;15.61;51.43
32033;BME280;31720;52.638;9.216;2023-05-03T13:02:20;102539.03;;;15.69;49.83
32033;BME280;31720;52.638;9.216;2023-05-03T13:05:21;102519.84;;;15.64;50.49
32033;BME280;31720;52.638;9.216;2023-05-03T13:08:24;102518.84;;;15.67;48.83
32033;BME280;31720;52.638;9.216;2023-05-03T13:11:26;102515.44;;;15.63;48.79
32033;BME280;31720;52.638;9.216;2023-05-03T13:14:27;102518.47;;;15.75;49.31
32033;BME280;31720;52.638;9.216;2023-05-03T13:17:29;102509.31;;;15.82;48.51
32033;BME280;31720;52.638;9.216;2023-05-03T13:20:31;102508.16;;;15.87;48.69
32033;BME280;31720;52.638;9.216;2023-05-03T13:23:34;102502.59;;;16.11;50.08
32033;BME280;31720;52.638;9.216;2023-05-03T13:26:35;102512.53;;;15.88;49.13
32033;BME280;31720;52.638;9.216;2023-05-03T13:29:37;102504.75;;;16.03;50.69
32033;BME280;31720;52.638;9.216;2023-05-03T13:32:38;102498.94;;;15.57;47.42
32033;BME280;31720;52.638;9.216;2023-05-03T13:35:40;102490.56;;;15.67;48.17
32033;BME280;31720;52.638;9.216;2023-05-03T13:38:42;102495.63;;;15.72;48.61
32033;BME280;31720;52.638;9.216;2023-05-03T13:41:44;102500.63;;;15.78;49.09
32033;BME280;31720;52.638;9.216;2023-05-03T13:44:45;102490.59;;;16.04;49.89
32033;BME280;31720;52.638;9.216;2023-05-03T13:47:47;102491.09;;;16.29;50.92
32033;BME280;31720;52.638;9.216;2023-05-03T13:50:48;102482.50;;;16.24;49.06
32033;BME280;31720;52.638;9.216;2023-05-03T13:53:51;102485.97;;;16.26;49.58
32033;BME280;31720;52.638;9.216;2023-05-03T13:56:52;102485.91;;;16.45;49.18
32033;BME280;31720;52.638;9.216;2023-05-03T13:59:54;102480.22;;;16.16;47.72
32033;BME280;31720;52.638;9.216;2023-05-03T14:02:55;102472.53;;;15.93;48.29
32033;BME280;31720;52.638;9.216;2023-05-03T14:05:57;102469.94;;;16.28;49.60
32033;BME280;31720;52.638;9.216;2023-05-03T14:08:59;102461.38;;;16.22;47.28
32033;BME280;31720;52.638;9.216;2023-05-03T14:12:01;102465.28;;;16.33;48.53
32033;BME280;31720;52.638;9.216;2023-05-03T14:15:04;102459.03;;;16.51;47.76
32033;BME280;31720;52.638;9.216;2023-05-03T14:18:05;102462.03;;;16.62;49.37
32033;BME280;31720;52.638;9.216;2023-05-03T14:21:07;102458.72;;;16.57;47.51
32033;BME280;31720;52.638;9.216;2023-05-03T14:24:10;102446.00;;;16.64;47.50
32033;BME280;31720;52.638;9.216;2023-05-03T14:27:12;102450.47;;;16.63;47.17
32033;BME280;31720;52.638;9.216;2023-05-03T14:30:15;102436.16;;;16.48;47.75
32033;BME280;31720;52.638;9.216;2023-05-03T14:33:17;102437.56;;;16.56;47.31
32033;BME280;31720;52.638;9.216;2023-05-03T14:36:18;102429.94;;;16.49;45.99
32033;BME280;31720;52.638;9.216;2023-05-03T14:39:21;102427.88;;;16.20;47.88
32033;BME280;31720;52.638;9.216;2023-05-03T14:42:22;102424.38;;;16.54;48.43
32033;BME280;31720;52.638;9.216;2023-05-03T14:45:24;102428.59;;;16.76;46.09
32033;BME280;31720;52.638;9.216;2023-05-03T14:48:25;102422.28;;;16.78;47.28
32033;BME280;31720;52.638;9.216;2023-05-03T14:51:27;102413.28;;;17.14;46.60
32033;BME280;31720;52.638;9.216;2023-05-03T14:54:30;102419.72;;;17.25;44.52
32033;BME280;31720;52.638;9.216;2023-05-03T14:57:32;102419.91;;;17.22;43.46
32033;BME280;31720;52.638;9.216;2023-05-03T15:00:36;102414.84;;;17.18;44.67
32033;BME280;31720;52.638;9.216;2023-05-03T15:03:37;102409.72;;;16.97;45.28
32033;BME280;31720;52.638;9.216;2023-05-03T15:06:38;102414.06;;;16.83;45.78
32033;BME280;31720;52.638;9.216;2023-05-03T15:09:41;102408.00;;;16.81;45.47
32033;BME280;31720;52.638;9.216;2023-05-03T15:12:43;102409.16;;;16.75;47.27
32033;BME280;31720;52.638;9.216;2023-05-03T15:15:45;102408.59;;;16.86;44.05
32033;BME280;31720;52.638;9.216;2023-05-03T15:18:47;102394.88;;;16.78;45.22
32033;BME280;31720;52.638;9.216;2023-05-03T15:21:50;102397.44;;;16.79;44.88
32033;BME280;31720;52.638;9.216;2023-05-03T15:24:52;102393.63;;;16.67;45.63
32033;BME280;31720;52.638;9.216;2023-05-03T15:27:54;102394.28;;;16.71;43.73
32033;BME280;31720;52.638;9.216;2023-05-03T15:30:55;102390.06;;;16.84;44.24
32033;BME280;31720;52.638;9.216;2023-05-03T15:33:57;102381.59;;;16.78;45.49
32033;BME280;31720;52.638;9.216;2023-05-03T15:36:58;102389.91;;;16.70;46.44
32033;BME280;31720;52.638;9.216;2023-05-03T15:40:01;102386.19;;;16.74;47.76
32033;BME280;31720;52.638;9.216;2023-05-03T15:43:03;102377.94;;;16.96;48.80
32033;BME280;31720;52.638;9.216;2023-05-03T15:46:04;102375.31;;;17.12;47.81
32033;BME280;31720;52.638;9.216;2023-05-03T15:49:06;102369.84;;;17.31;44.47
32033;BME280;31720;52.638;9.216;2023-05-03T15:52:07;102372.66;;;17.43;45.90
32033;BME280;31720;52.638;9.216;2023-05-03T15:55:13;102377.22;;;17.41;44.94
32033;BME280;31720;52.638;9.216;2023-05-03T15:58:14;102370.59;;;17.33;46.51